sensor_id;sensor_type;location;lat;lon;timestamp;P1;durP1;ratioP1;P2;durP2;ratioP2
11100;SDS011;5604;50.722;7.078;2022-12-24T00:01:37;13.10;;;3.30;;
11100;SDS011;5604;50.722;7.078;2022-12-24T00:04:05;15.37;;;3.63;;
11100;SDS011;5604;50.722;7.078;2022-12-24T00:06:34;17.10;;;4.37;;
11100;SDS011;5604;50.722;7.078;2022-12-24T00:09:02;17.77;;;3.40;;
11100;SDS011;5604;50.722;7.078;2022-12-24T00:11:32;15.03;;;3.70;;
11100;SDS011;5604;50.722;7.078;2022-12-24T00:14:02;16.83;;;3.20;;
11100;SDS011;5604;50.722;7.078;2022-12-24T00:16:31;14.70;;;4.10;;
11100;SDS011;5604;50.722;7.078;2022-12-24T00:19:02;15.77;;;4.27;;
11100;SDS011;5604;50.722;7.078;2022-12-24T00:21:31;10.90;;;2.93;;
11100;SDS011;5604;50.722;7.078;2022-12-24T00:24:00;14.93;;;3.73;;
11100;SDS011;5604;50.722;7.078;2022-12-24T00:26:35;10.37;;;3.37;;
11100;SDS011;5604;50.722;7.078;2022-12-24T00:29:03;16.33;;;3.87;;
11100;SDS011;5604;50.722;7.078;2022-12-24T00:31:33;13.47;;;3.27;;
11100;SDS011;5604;50.722;7.078;2022-12-24T00:34:01;17.67;;;4.50;;
11100;SDS011;5604;50.722;7.078;2022-12-24T00:36:31;12.80;;;3.57;;
11100;SDS011;5604;50.722;7.078;2022-12-24T00:38:59;14.27;;;4.03;;
11100;SDS011;5604;50.722;7.078;2022-12-24T00:41:29;11.97;;;3.53;;
11100;SDS011;5604;50.722;7.078;2022-12-24T00:44:02;15.83;;;4.57;;
11100;SDS011;5604;50.722;7.078;2022-12-24T00:46:32;18.27;;;3.87;;
11100;SDS011;5604;50.722;7.078;2022-12-24T00:49:01;16.70;;;3.67;;
11100;SDS011;5604;50.722;7.078;2022-12-24T00:51:30;13.20;;;3.23;;
11100;SDS011;5604;50.722;7.078;2022-12-24T00:53:59;9.07;;;2.40;;
11100;SDS011;5604;50.722;7.078;2022-12-24T00:56:28;12.77;;;3.93;;
11100;SDS011;5604;50.722;7.078;2022-12-24T00:58:56;15.07;;;3.40;;
11100;SDS011;5604;50.722;7.078;2022-12-24T01:01:27;13.40;;;4.80;;
11100;SDS011;5604;50.722;7.078;2022-12-24T01:04:00;17.17;;;3.90;;
11100;SDS011;5604;50.722;7.078;2022-12-24T01:06:43;19.50;;;4.00;;
11100;SDS011;5604;50.722;7.078;2022-12-24T01:09:12;15.00;;;3.13;;
11100;SDS011;5604;50.722;7.078;2022-12-24T01:11:40;11.50;;;3.53;;
11100;SDS011;5604;50.722;7.078;2022-12-24T01:14:09;14.23;;;3.27;;
11100;SDS011;5604;50.722;7.078;2022-12-24T01:16:38;11.30;;;4.77;;
11100;SDS011;5604;50.722;7.078;2022-12-24T01:19:06;16.37;;;3.67;;
11100;SDS011;5604;50.722;7.078;2022-12-24T01:21:34;15.37;;;3.43;;
11100;SDS011;5604;50.722;7.078;2022-12-24T01:24:02;14.27;;;3.50;;
11100;SDS011;5604;50.722;7.078;2022-12-24T01:26:31;11.53;;;3.37;;
11100;SDS011;5604;50.722;7.078;2022-12-24T01:28:59;12.97;;;4.00;;
11100;SDS011;5604;50.722;7.078;2022-12-24T01:31:29;13.60;;;4.13;;
11100;SDS011;5604;50.722;7.078;2022-12-24T01:33:59;13.80;;;3.77;;
11100;SDS011;5604;50.722;7.078;2022-12-24T01:36:28;15.00;;;3.30;;
11100;SDS011;5604;50.722;7.078;2022-12-24T01:38:57;11.90;;;3.47;;
11100;SDS011;5604;50.722;7.078;2022-12-24T01:41:25;12.93;;;3.40;;
11100;SDS011;5604;50.722;7.078;2022-12-24T01:44:15;15.73;;;4.73;;
11100;SDS011;5604;50.722;7.078;2022-12-24T01:46:48;13.37;;;3.50;;
11100;SDS011;5604;50.722;7.078;2022-12-24T01:49:18;13.27;;;3.33;;
11100;SDS011;5604;50.722;7.078;2022-12-24T01:51:47;11.93;;;3.30;;
11100;SDS011;5604;50.722;7.078;2022-12-24T01:54:19;11.53;;;3.20;;
11100;SDS011;5604;50.722;7.078;2022-12-24T01:56:50;13.90;;;4.10;;
11100;SDS011;5604;50.722;7.078;2022-12-24T01:59:19;12.37;;;3.37;;
11100;SDS011;5604;50.722;7.078;2022-12-24T02:01:48;12.80;;;3.57;;
11100;SDS011;5604;50.722;7.078;2022-12-24T02:04:22;13.20;;;3.57;;
11100;SDS011;5604;50.722;7.078;2022-12-24T02:06:52;14.77;;;3.47;;
11100;SDS011;5604;50.722;7.078;2022-12-24T02:09:20;8.37;;;2.83;;
11100;SDS011;5604;50.722;7.078;2022-12-24T02:11:48;14.97;;;3.80;;
11100;SDS011;5604;50.722;7.078;2022-12-24T02:14:16;11.07;;;3.33;;
11100;SDS011;5604;50.722;7.078;2022-12-24T02:16:46;10.93;;;2.97;;
11100;SDS011;5604;50.722;7.078;2022-12-24T02:22:24;9.60;;;2.63;;
11100;SDS011;5604;50.722;7.078;2022-12-24T02:25:10;10.20;;;2.67;;
11100;SDS011;5604;50.722;7.078;2022-12-24T02:27:50;13.47;;;3.50;;
11100;SDS011;5604;50.722;7.078;2022-12-24T02:30:23;12.20;;;3.17;;
11100;SDS011;5604;50.722;7.078;2022-12-24T02:32:54;12.27;;;3.43;;
11100;SDS011;5604;50.722;7.078;2022-12-24T02:35:27;12.17;;;3.43;;
11100;SDS011;5604;50.722;7.078;2022-12-24T02:38:00;14.93;;;3.20;;
11100;SDS011;5604;50.722;7.078;2022-12-24T02:40:32;12.97;;;3.10;;
11100;SDS011;5604;50.722;7.078;2022-12-24T02:43:04;13.20;;;3.47;;
11100;SDS011;5604;50.722;7.078;2022-12-24T02:45:37;12.47;;;3.20;;
11100;SDS011;5604;50.722;7.078;2022-12-24T02:48:07;11.33;;;3.10;;
11100;SDS011;5604;50.722;7.078;2022-12-24T02:50:36;16.67;;;3.17;;
11100;SDS011;5604;50.722;7.078;2022-12-24T02:53:04;13.53;;;2.73;;
11100;SDS011;5604;50.722;7.078;2022-12-24T02:55:33;11.00;;;3.47;;
11100;SDS011;5604;50.722;7.078;2022-12-24T02:58:10;11.03;;;3.27;;
11100;SDS011;5604;50.722;7.078;2022-12-24T03:00:47;12.07;;;3.03;;
11100;SDS011;5604;50.722;7.078;2022-12-24T03:03:24;15.80;;;3.63;;
11100;SDS011;5604;50.722;7.078;2022-12-24T03:06:01;8.17;;;3.03;;
11100;SDS011;5604;50.722;7.078;2022-12-24T03:08:36;11.77;;;3.03;;
11100;SDS011;5604;50.722;7.078;2022-12-24T03:11:11;11.10;;;3.13;;
11100;SDS011;5604;50.722;7.078;2022-12-24T03:13:41;10.73;;;2.70;;
11100;SDS011;5604;50.722;7.078;2022-12-24T03:16:11;16.00;;;3.53;;
11100;SDS011;5604;50.722;7.078;2022-12-24T03:18:43;10.87;;;3.20;;
11100;SDS011;5604;50.722;7.078;2022-12-24T03:21:15;9.37;;;2.73;;
11100;SDS011;5604;50.722;7.078;2022-12-24T03:23:44;11.73;;;3.30;;
11100;SDS011;5604;50.722;7.078;2022-12-24T03:26:12;9.33;;;2.63;;
11100;SDS011;5604;50.722;7.078;2022-12-24T03:28:43;9.23;;;2.93;;
11100;SDS011;5604;50.722;7.078;2022-12-24T03:31:13;10.30;;;2.77;;
11100;SDS011;5604;50.722;7.078;2022-12-24T03:33:42;12.40;;;3.80;;
11100;SDS011;5604;50.722;7.078;2022-12-24T03:36:10;10.23;;;2.77;;
11100;SDS011;5604;50.722;7.078;2022-12-24T03:38:39;11.03;;;3.33;;
11100;SDS011;5604;50.722;7.078;2022-12-24T03:41:07;10.93;;;2.97;;
11100;SDS011;5604;50.722;7.078;2022-12-24T03:43:35;10.37;;;3.43;;
11100;SDS011;5604;50.722;7.078;2022-12-24T03:46:04;10.03;;;3.10;;
11100;SDS011;5604;50.722;7.078;2022-12-24T03:48:34;9.03;;;2.83;;
11100;SDS011;5604;50.722;7.078;2022-12-24T03:51:03;12.50;;;3.03;;
11100;SDS011;5604;50.722;7.078;2022-12-24T03:53:31;10.70;;;2.87;;
11100;SDS011;5604;50.722;7.078;2022-12-24T03:55:59;11.10;;;2.90;;
11100;SDS011;5604;50.722;7.078;2022-12-24T03:58:27;10.63;;;3.20;;
11100;SDS011;5604;50.722;7.078;2022-12-24T04:00:55;10.60;;;3.30;;
11100;SDS011;5604;50.722;7.078;2022-12-24T04:03:23;13.23;;;3.50;;
11100;SDS011;5604;50.722;7.078;2022-12-24T04:06:00;10.37;;;3.23;;
11100;SDS011;5604;50.722;7.078;2022-12-24T04:08:28;16.53;;;3.40;;
11100;SDS011;5604;50.722;7.078;2022-12-24T04:10:56;14.87;;;3.20;;
11100;SDS011;5604;50.722;7.078;2022-12-24T04:13:31;15.53;;;3.60;;
11100;SDS011;5604;50.722;7.078;2022-12-24T04:16:00;11.47;;;3.17;;
11100;SDS011;5604;50.722;7.078;2022-12-24T04:18:29;11.67;;;3.40;;
11100;SDS011;5604;50.722;7.078;2022-12-24T04:20:57;13.73;;;3.60;;
11100;SDS011;5604;50.722;7.078;2022-12-24T04:23:28;11.33;;;3.23;;
11100;SDS011;5604;50.722;7.078;2022-12-24T04:25:57;10.23;;;3.03;;
11100;SDS011;5604;50.722;7.078;2022-12-24T04:28:25;9.10;;;2.57;;
11100;SDS011;5604;50.722;7.078;2022-12-24T04:30:56;7.37;;;2.13;;
11100;SDS011;5604;50.722;7.078;2022-12-24T04:33:25;7.33;;;2.00;;
11100;SDS011;5604;50.722;7.078;2022-12-24T04:35:53;5.87;;;2.20;;
11100;SDS011;5604;50.722;7.078;2022-12-24T04:38:21;10.07;;;3.07;;
11100;SDS011;5604;50.722;7.078;2022-12-24T04:40:57;6.67;;;2.20;;
11100;SDS011;5604;50.722;7.078;2022-12-24T04:43:28;5.07;;;1.93;;
11100;SDS011;5604;50.722;7.078;2022-12-24T04:46:02;3.90;;;1.67;;
11100;SDS011;5604;50.722;7.078;2022-12-24T04:48:32;4.37;;;1.43;;
11100;SDS011;5604;50.722;7.078;2022-12-24T04:51:00;7.13;;;2.03;;
11100;SDS011;5604;50.722;7.078;2022-12-24T04:53:29;6.30;;;2.00;;
11100;SDS011;5604;50.722;7.078;2022-12-24T04:55:59;6.13;;;1.60;;
11100;SDS011;5604;50.722;7.078;2022-12-24T04:58:28;6.60;;;1.67;;
11100;SDS011;5604;50.722;7.078;2022-12-24T05:00:56;4.97;;;1.80;;
11100;SDS011;5604;50.722;7.078;2022-12-24T05:03:30;3.80;;;1.43;;
11100;SDS011;5604;50.722;7.078;2022-12-24T05:06:02;9.07;;;2.07;;
11100;SDS011;5604;50.722;7.078;2022-12-24T05:08:30;7.10;;;2.20;;
11100;SDS011;5604;50.722;7.078;2022-12-24T05:11:00;5.80;;;2.00;;
11100;SDS011;5604;50.722;7.078;2022-12-24T05:13:29;8.33;;;2.10;;
11100;SDS011;5604;50.722;7.078;2022-12-24T05:16:06;6.60;;;2.10;;
11100;SDS011;5604;50.722;7.078;2022-12-24T05:18:34;7.30;;;2.17;;
11100;SDS011;5604;50.722;7.078;2022-12-24T05:21:02;5.07;;;2.03;;
11100;SDS011;5604;50.722;7.078;2022-12-24T05:23:36;6.10;;;2.10;;
11100;SDS011;5604;50.722;7.078;2022-12-24T05:26:38;6.20;;;2.37;;
11100;SDS011;5604;50.722;7.078;2022-12-24T05:29:08;6.67;;;2.43;;
11100;SDS011;5604;50.722;7.078;2022-12-24T05:31:39;8.53;;;2.83;;
11100;SDS011;5604;50.722;7.078;2022-12-24T05:34:08;11.23;;;2.97;;
11100;SDS011;5604;50.722;7.078;2022-12-24T05:36:37;7.40;;;2.50;;
11100;SDS011;5604;50.722;7.078;2022-12-24T05:39:06;10.87;;;2.90;;
11100;SDS011;5604;50.722;7.078;2022-12-24T05:41:42;10.17;;;2.70;;
11100;SDS011;5604;50.722;7.078;2022-12-24T05:44:11;12.80;;;3.10;;
11100;SDS011;5604;50.722;7.078;2022-12-24T05:46:40;5.77;;;2.50;;
11100;SDS011;5604;50.722;7.078;2022-12-24T05:49:08;9.47;;;2.20;;
11100;SDS011;5604;50.722;7.078;2022-12-24T05:51:36;8.73;;;2.47;;
11100;SDS011;5604;50.722;7.078;2022-12-24T05:54:05;8.57;;;2.60;;
11100;SDS011;5604;50.722;7.078;2022-12-24T05:56:34;5.10;;;1.90;;
11100;SDS011;5604;50.722;7.078;2022-12-24T05:59:03;7.83;;;2.17;;
11100;SDS011;5604;50.722;7.078;2022-12-24T06:01:31;6.60;;;2.20;;
11100;SDS011;5604;50.722;7.078;2022-12-24T06:03:59;3.40;;;1.60;;
11100;SDS011;5604;50.722;7.078;2022-12-24T06:06:28;6.30;;;2.30;;
11100;SDS011;5604;50.722;7.078;2022-12-24T06:08:57;6.60;;;2.00;;
11100;SDS011;5604;50.722;7.078;2022-12-24T06:11:25;5.40;;;1.60;;
11100;SDS011;5604;50.722;7.078;2022-12-24T06:13:54;4.47;;;1.80;;
11100;SDS011;5604;50.722;7.078;2022-12-24T06:16:24;5.37;;;1.70;;
11100;SDS011;5604;50.722;7.078;2022-12-24T06:18:52;5.13;;;1.73;;
11100;SDS011;5604;50.722;7.078;2022-12-24T06:21:21;5.60;;;2.10;;
11100;SDS011;5604;50.722;7.078;2022-12-24T06:23:49;6.97;;;2.70;;
11100;SDS011;5604;50.722;7.078;2022-12-24T06:26:18;3.37;;;1.50;;
11100;SDS011;5604;50.722;7.078;2022-12-24T06:28:47;2.70;;;1.30;;
11100;SDS011;5604;50.722;7.078;2022-12-24T06:31:17;4.13;;;1.23;;
11100;SDS011;5604;50.722;7.078;2022-12-24T06:33:47;4.53;;;1.50;;
11100;SDS011;5604;50.722;7.078;2022-12-24T06:36:17;7.60;;;1.47;;
11100;SDS011;5604;50.722;7.078;2022-12-24T06:38:46;5.43;;;1.50;;
11100;SDS011;5604;50.722;7.078;2022-12-24T06:41:14;3.63;;;1.57;;
11100;SDS011;5604;50.722;7.078;2022-12-24T06:43:43;4.50;;;1.67;;
11100;SDS011;5604;50.722;7.078;2022-12-24T06:46:12;3.87;;;1.77;;
11100;SDS011;5604;50.722;7.078;2022-12-24T06:48:41;3.33;;;1.60;;
11100;SDS011;5604;50.722;7.078;2022-12-24T06:51:11;8.30;;;2.07;;
11100;SDS011;5604;50.722;7.078;2022-12-24T06:53:39;7.40;;;2.30;;
11100;SDS011;5604;50.722;7.078;2022-12-24T06:56:08;6.23;;;2.50;;
11100;SDS011;5604;50.722;7.078;2022-12-24T06:58:38;9.70;;;2.90;;
11100;SDS011;5604;50.722;7.078;2022-12-24T07:01:08;7.97;;;2.13;;
11100;SDS011;5604;50.722;7.078;2022-12-24T07:03:37;10.10;;;3.30;;
11100;SDS011;5604;50.722;7.078;2022-12-24T07:06:06;12.53;;;3.47;;
11100;SDS011;5604;50.722;7.078;2022-12-24T07:08:36;9.97;;;2.90;;
11100;SDS011;5604;50.722;7.078;2022-12-24T07:11:04;13.33;;;2.67;;
11100;SDS011;5604;50.722;7.078;2022-12-24T07:13:32;11.50;;;3.10;;
11100;SDS011;5604;50.722;7.078;2022-12-24T07:16:01;11.97;;;3.27;;
11100;SDS011;5604;50.722;7.078;2022-12-24T07:18:30;13.50;;;3.57;;
11100;SDS011;5604;50.722;7.078;2022-12-24T07:20:59;12.00;;;3.23;;
11100;SDS011;5604;50.722;7.078;2022-12-24T07:23:27;12.00;;;3.63;;
11100;SDS011;5604;50.722;7.078;2022-12-24T07:25:59;12.65;;;4.22;;
11100;SDS011;5604;50.722;7.078;2022-12-24T07:28:28;17.17;;;3.90;;
11100;SDS011;5604;50.722;7.078;2022-12-24T07:30:56;15.53;;;3.97;;
11100;SDS011;5604;50.722;7.078;2022-12-24T07:33:25;11.03;;;3.50;;
11100;SDS011;5604;50.722;7.078;2022-12-24T07:35:57;15.33;;;3.63;;
11100;SDS011;5604;50.722;7.078;2022-12-24T07:38:27;17.27;;;4.50;;
11100;SDS011;5604;50.722;7.078;2022-12-24T07:40:56;17.03;;;4.47;;
11100;SDS011;5604;50.722;7.078;2022-12-24T07:43:25;16.00;;;4.03;;
11100;SDS011;5604;50.722;7.078;2022-12-24T07:45:54;19.47;;;5.00;;
11100;SDS011;5604;50.722;7.078;2022-12-24T07:48:23;12.50;;;3.80;;
11100;SDS011;5604;50.722;7.078;2022-12-24T07:50:52;17.97;;;4.30;;
11100;SDS011;5604;50.722;7.078;2022-12-24T07:53:20;18.80;;;4.93;;
11100;SDS011;5604;50.722;7.078;2022-12-24T07:55:48;17.97;;;3.90;;
11100;SDS011;5604;50.722;7.078;2022-12-24T07:58:16;13.37;;;4.30;;
11100;SDS011;5604;50.722;7.078;2022-12-24T08:00:46;19.60;;;4.40;;
11100;SDS011;5604;50.722;7.078;2022-12-24T08:03:15;17.83;;;3.83;;
11100;SDS011;5604;50.722;7.078;2022-12-24T08:05:44;12.43;;;4.30;;
11100;SDS011;5604;50.722;7.078;2022-12-24T08:08:12;17.23;;;4.37;;
11100;SDS011;5604;50.722;7.078;2022-12-24T08:10:41;13.87;;;3.90;;
11100;SDS011;5604;50.722;7.078;2022-12-24T08:13:10;16.43;;;4.50;;
11100;SDS011;5604;50.722;7.078;2022-12-24T08:15:38;14.73;;;3.97;;
11100;SDS011;5604;50.722;7.078;2022-12-24T08:18:08;17.37;;;5.03;;
11100;SDS011;5604;50.722;7.078;2022-12-24T08:20:37;16.73;;;5.10;;
11100;SDS011;5604;50.722;7.078;2022-12-24T08:23:05;19.47;;;4.23;;
11100;SDS011;5604;50.722;7.078;2022-12-24T08:25:34;17.90;;;4.27;;
11100;SDS011;5604;50.722;7.078;2022-12-24T08:28:03;18.10;;;3.60;;
11100;SDS011;5604;50.722;7.078;2022-12-24T08:30:31;15.10;;;4.97;;
11100;SDS011;5604;50.722;7.078;2022-12-24T08:33:00;15.47;;;4.30;;
11100;SDS011;5604;50.722;7.078;2022-12-24T08:35:29;17.07;;;3.97;;
11100;SDS011;5604;50.722;7.078;2022-12-24T08:37:58;14.83;;;4.40;;
11100;SDS011;5604;50.722;7.078;2022-12-24T08:40:26;18.70;;;4.60;;
11100;SDS011;5604;50.722;7.078;2022-12-24T08:42:54;13.00;;;3.73;;
11100;SDS011;5604;50.722;7.078;2022-12-24T08:45:22;15.17;;;4.57;;
11100;SDS011;5604;50.722;7.078;2022-12-24T08:47:50;18.60;;;4.47;;
11100;SDS011;5604;50.722;7.078;2022-12-24T08:50:18;18.27;;;4.57;;
11100;SDS011;5604;50.722;7.078;2022-12-24T08:52:48;13.00;;;4.13;;
11100;SDS011;5604;50.722;7.078;2022-12-24T08:55:16;20.00;;;5.27;;
11100;SDS011;5604;50.722;7.078;2022-12-24T08:57:44;17.27;;;3.90;;
11100;SDS011;5604;50.722;7.078;2022-12-24T09:00:13;18.90;;;4.97;;
11100;SDS011;5604;50.722;7.078;2022-12-24T09:02:41;14.97;;;4.40;;
11100;SDS011;5604;50.722;7.078;2022-12-24T09:05:10;18.63;;;4.67;;
11100;SDS011;5604;50.722;7.078;2022-12-24T09:07:38;17.13;;;4.27;;
11100;SDS011;5604;50.722;7.078;2022-12-24T09:10:08;17.00;;;4.17;;
11100;SDS011;5604;50.722;7.078;2022-12-24T09:12:37;15.87;;;4.47;;
11100;SDS011;5604;50.722;7.078;2022-12-24T09:15:06;17.37;;;4.00;;
11100;SDS011;5604;50.722;7.078;2022-12-24T09:17:35;13.07;;;3.77;;
11100;SDS011;5604;50.722;7.078;2022-12-24T09:20:03;14.37;;;3.77;;
11100;SDS011;5604;50.722;7.078;2022-12-24T09:22:33;16.03;;;4.00;;
11100;SDS011;5604;50.722;7.078;2022-12-24T09:25:02;18.57;;;4.93;;
11100;SDS011;5604;50.722;7.078;2022-12-24T09:27:32;14.63;;;3.70;;
11100;SDS011;5604;50.722;7.078;2022-12-24T09:30:00;10.80;;;3.93;;
11100;SDS011;5604;50.722;7.078;2022-12-24T09:32:28;13.53;;;3.83;;
11100;SDS011;5604;50.722;7.078;2022-12-24T09:34:56;11.43;;;3.83;;
11100;SDS011;5604;50.722;7.078;2022-12-24T09:37:24;14.40;;;4.00;;
11100;SDS011;5604;50.722;7.078;2022-12-24T09:39:52;17.90;;;4.60;;
11100;SDS011;5604;50.722;7.078;2022-12-24T09:42:23;16.13;;;4.10;;
11100;SDS011;5604;50.722;7.078;2022-12-24T09:44:59;13.53;;;4.00;;
11100;SDS011;5604;50.722;7.078;2022-12-24T09:47:31;16.20;;;3.90;;
11100;SDS011;5604;50.722;7.078;2022-12-24T09:50:02;12.77;;;3.80;;
11100;SDS011;5604;50.722;7.078;2022-12-24T09:52:35;16.50;;;4.30;;
11100;SDS011;5604;50.722;7.078;2022-12-24T09:55:21;18.33;;;4.47;;
11100;SDS011;5604;50.722;7.078;2022-12-24T09:57:51;17.27;;;4.07;;
11100;SDS011;5604;50.722;7.078;2022-12-24T10:00:25;10.37;;;3.90;;
11100;SDS011;5604;50.722;7.078;2022-12-24T10:02:56;20.60;;;4.47;;
11100;SDS011;5604;50.722;7.078;2022-12-24T10:05:27;14.83;;;3.77;;
11100;SDS011;5604;50.722;7.078;2022-12-24T10:08:00;17.67;;;4.57;;
11100;SDS011;5604;50.722;7.078;2022-12-24T10:10:36;19.73;;;4.23;;
11100;SDS011;5604;50.722;7.078;2022-12-24T10:13:08;18.70;;;4.73;;
11100;SDS011;5604;50.722;7.078;2022-12-24T10:15:45;16.43;;;4.53;;
11100;SDS011;5604;50.722;7.078;2022-12-24T10:18:20;15.00;;;3.90;;
11100;SDS011;5604;50.722;7.078;2022-12-24T10:20:56;17.27;;;4.00;;
11100;SDS011;5604;50.722;7.078;2022-12-24T10:23:29;17.97;;;4.07;;
11100;SDS011;5604;50.722;7.078;2022-12-24T10:26:03;14.47;;;4.70;;
11100;SDS011;5604;50.722;7.078;2022-12-24T10:28:37;16.13;;;5.40;;
11100;SDS011;5604;50.722;7.078;2022-12-24T10:31:14;16.40;;;5.10;;
11100;SDS011;5604;50.722;7.078;2022-12-24T10:33:43;19.80;;;5.80;;
11100;SDS011;5604;50.722;7.078;2022-12-24T10:36:14;13.03;;;4.07;;
11100;SDS011;5604;50.722;7.078;2022-12-24T10:38:44;18.40;;;4.87;;
11100;SDS011;5604;50.722;7.078;2022-12-24T10:41:13;20.13;;;4.47;;
11100;SDS011;5604;50.722;7.078;2022-12-24T10:43:42;15.57;;;3.80;;
11100;SDS011;5604;50.722;7.078;2022-12-24T10:46:15;12.43;;;4.07;;
11100;SDS011;5604;50.722;7.078;2022-12-24T10:48:47;18.17;;;5.57;;
11100;SDS011;5604;50.722;7.078;2022-12-24T10:51:19;19.27;;;5.00;;
11100;SDS011;5604;50.722;7.078;2022-12-24T10:53:50;17.07;;;5.00;;
11100;SDS011;5604;50.722;7.078;2022-12-24T10:56:22;17.83;;;5.03;;
11100;SDS011;5604;50.722;7.078;2022-12-24T10:58:51;13.77;;;4.13;;
11100;SDS011;5604;50.722;7.078;2022-12-24T11:01:40;18.07;;;4.97;;
11100;SDS011;5604;50.722;7.078;2022-12-24T11:04:14;17.50;;;4.27;;
11100;SDS011;5604;50.722;7.078;2022-12-24T11:06:50;17.87;;;5.53;;
11100;SDS011;5604;50.722;7.078;2022-12-24T11:09:20;17.90;;;4.53;;
11100;SDS011;5604;50.722;7.078;2022-12-24T11:11:50;21.13;;;4.47;;
11100;SDS011;5604;50.722;7.078;2022-12-24T11:14:18;14.47;;;4.17;;
11100;SDS011;5604;50.722;7.078;2022-12-24T11:16:52;19.07;;;4.47;;
11100;SDS011;5604;50.722;7.078;2022-12-24T11:19:25;15.63;;;3.80;;
11100;SDS011;5604;50.722;7.078;2022-12-24T11:21:57;14.80;;;4.20;;
11100;SDS011;5604;50.722;7.078;2022-12-24T11:24:29;14.83;;;4.87;;
11100;SDS011;5604;50.722;7.078;2022-12-24T11:32:41;18.37;;;4.87;;
11100;SDS011;5604;50.722;7.078;2022-12-24T11:35:17;17.03;;;4.27;;
11100;SDS011;5604;50.722;7.078;2022-12-24T11:37:47;17.43;;;4.43;;
11100;SDS011;5604;50.722;7.078;2022-12-24T11:40:20;17.57;;;4.60;;
11100;SDS011;5604;50.722;7.078;2022-12-24T11:42:51;22.03;;;3.73;;
11100;SDS011;5604;50.722;7.078;2022-12-24T11:45:20;15.70;;;3.93;;
11100;SDS011;5604;50.722;7.078;2022-12-24T11:47:51;15.97;;;3.77;;
11100;SDS011;5604;50.722;7.078;2022-12-24T11:50:22;15.47;;;3.80;;
11100;SDS011;5604;50.722;7.078;2022-12-24T11:52:54;18.30;;;4.53;;
11100;SDS011;5604;50.722;7.078;2022-12-24T11:55:28;14.37;;;4.33;;
11100;SDS011;5604;50.722;7.078;2022-12-24T11:58:13;14.77;;;5.20;;
11100;SDS011;5604;50.722;7.078;2022-12-24T12:00:45;14.93;;;3.97;;
11100;SDS011;5604;50.722;7.078;2022-12-24T12:03:19;19.40;;;4.63;;
11100;SDS011;5604;50.722;7.078;2022-12-24T12:05:53;17.77;;;4.83;;
11100;SDS011;5604;50.722;7.078;2022-12-24T12:08:22;15.93;;;4.17;;
11100;SDS011;5604;50.722;7.078;2022-12-24T12:10:50;22.33;;;5.07;;
11100;SDS011;5604;50.722;7.078;2022-12-24T12:13:21;16.63;;;4.77;;
11100;SDS011;5604;50.722;7.078;2022-12-24T12:18:40;16.10;;;4.53;;
11100;SDS011;5604;50.722;7.078;2022-12-24T12:21:10;15.10;;;4.10;;
11100;SDS011;5604;50.722;7.078;2022-12-24T12:23:42;15.67;;;4.50;;
11100;SDS011;5604;50.722;7.078;2022-12-24T12:26:12;24.90;;;5.03;;
11100;SDS011;5604;50.722;7.078;2022-12-24T12:28:43;18.00;;;4.87;;
11100;SDS011;5604;50.722;7.078;2022-12-24T12:31:14;16.17;;;4.07;;
11100;SDS011;5604;50.722;7.078;2022-12-24T12:33:50;16.03;;;4.33;;
11100;SDS011;5604;50.722;7.078;2022-12-24T12:36:22;15.27;;;3.90;;
11100;SDS011;5604;50.722;7.078;2022-12-24T12:38:53;14.83;;;3.53;;
11100;SDS011;5604;50.722;7.078;2022-12-24T12:41:23;18.97;;;4.57;;
11100;SDS011;5604;50.722;7.078;2022-12-24T12:44:03;13.67;;;4.00;;
11100;SDS011;5604;50.722;7.078;2022-12-24T12:46:45;11.13;;;4.07;;
11100;SDS011;5604;50.722;7.078;2022-12-24T12:49:27;21.00;;;4.13;;
11100;SDS011;5604;50.722;7.078;2022-12-24T12:52:01;16.90;;;4.43;;
11100;SDS011;5604;50.722;7.078;2022-12-24T12:54:39;16.00;;;3.57;;
11100;SDS011;5604;50.722;7.078;2022-12-24T12:57:15;15.67;;;3.87;;
11100;SDS011;5604;50.722;7.078;2022-12-24T12:59:46;14.83;;;4.23;;
11100;SDS011;5604;50.722;7.078;2022-12-24T13:02:21;16.07;;;4.27;;
11100;SDS011;5604;50.722;7.078;2022-12-24T13:05:03;13.93;;;4.23;;
11100;SDS011;5604;50.722;7.078;2022-12-24T13:08:14;18.13;;;5.03;;
11100;SDS011;5604;50.722;7.078;2022-12-24T13:10:53;17.60;;;4.87;;
11100;SDS011;5604;50.722;7.078;2022-12-24T13:13:43;11.90;;;3.73;;
11100;SDS011;5604;50.722;7.078;2022-12-24T13:19:22;15.47;;;5.73;;
11100;SDS011;5604;50.722;7.078;2022-12-24T13:22:12;15.23;;;4.93;;
11100;SDS011;5604;50.722;7.078;2022-12-24T13:24:46;18.60;;;5.87;;
11100;SDS011;5604;50.722;7.078;2022-12-24T13:27:18;20.37;;;5.83;;
11100;SDS011;5604;50.722;7.078;2022-12-24T13:29:53;21.20;;;5.13;;
11100;SDS011;5604;50.722;7.078;2022-12-24T13:35:26;20.63;;;5.77;;
11100;SDS011;5604;50.722;7.078;2022-12-24T13:44:23;20.50;;;4.93;;
11100;SDS011;5604;50.722;7.078;2022-12-24T13:46:59;19.60;;;4.83;;
11100;SDS011;5604;50.722;7.078;2022-12-24T13:49:32;20.50;;;4.23;;
11100;SDS011;5604;50.722;7.078;2022-12-24T13:55:03;23.30;;;5.33;;
11100;SDS011;5604;50.722;7.078;2022-12-24T13:57:43;12.73;;;4.07;;
11100;SDS011;5604;50.722;7.078;2022-12-24T14:00:25;13.90;;;3.93;;
11100;SDS011;5604;50.722;7.078;2022-12-24T14:02:59;17.77;;;4.60;;
11100;SDS011;5604;50.722;7.078;2022-12-24T14:05:31;12.80;;;4.10;;
11100;SDS011;5604;50.722;7.078;2022-12-24T14:08:02;13.20;;;4.23;;
11100;SDS011;5604;50.722;7.078;2022-12-24T14:10:35;12.83;;;4.00;;
11100;SDS011;5604;50.722;7.078;2022-12-24T14:13:46;13.57;;;4.10;;
11100;SDS011;5604;50.722;7.078;2022-12-24T14:16:18;16.43;;;4.67;;
11100;SDS011;5604;50.722;7.078;2022-12-24T14:18:49;16.50;;;4.27;;
11100;SDS011;5604;50.722;7.078;2022-12-24T14:21:24;14.20;;;4.07;;
11100;SDS011;5604;50.722;7.078;2022-12-24T14:23:57;16.73;;;4.03;;
11100;SDS011;5604;50.722;7.078;2022-12-24T14:26:30;15.80;;;4.07;;
11100;SDS011;5604;50.722;7.078;2022-12-24T14:29:02;12.57;;;4.23;;
11100;SDS011;5604;50.722;7.078;2022-12-24T14:31:33;17.13;;;4.77;;
11100;SDS011;5604;50.722;7.078;2022-12-24T14:34:05;17.30;;;5.00;;
11100;SDS011;5604;50.722;7.078;2022-12-24T14:36:34;12.10;;;4.07;;
11100;SDS011;5604;50.722;7.078;2022-12-24T14:39:03;14.77;;;4.47;;
11100;SDS011;5604;50.722;7.078;2022-12-24T14:41:40;13.07;;;4.53;;
11100;SDS011;5604;50.722;7.078;2022-12-24T14:44:14;18.63;;;4.00;;
11100;SDS011;5604;50.722;7.078;2022-12-24T14:46:47;16.43;;;4.73;;
11100;SDS011;5604;50.722;7.078;2022-12-24T14:49:22;17.87;;;5.00;;
11100;SDS011;5604;50.722;7.078;2022-12-24T14:51:57;12.73;;;4.10;;
11100;SDS011;5604;50.722;7.078;2022-12-24T14:54:36;15.17;;;4.37;;
11100;SDS011;5604;50.722;7.078;2022-12-24T14:57:08;15.40;;;4.67;;
11100;SDS011;5604;50.722;7.078;2022-12-24T14:59:41;13.10;;;4.70;;
11100;SDS011;5604;50.722;7.078;2022-12-24T15:02:22;13.90;;;4.33;;
11100;SDS011;5604;50.722;7.078;2022-12-24T15:05:05;15.13;;;4.17;;
11100;SDS011;5604;50.722;7.078;2022-12-24T15:07:35;20.30;;;5.10;;
11100;SDS011;5604;50.722;7.078;2022-12-24T15:10:21;15.70;;;5.40;;
11100;SDS011;5604;50.722;7.078;2022-12-24T15:12:54;17.47;;;4.17;;
11100;SDS011;5604;50.722;7.078;2022-12-24T15:15:23;13.50;;;4.23;;
11100;SDS011;5604;50.722;7.078;2022-12-24T15:17:51;15.47;;;4.63;;
11100;SDS011;5604;50.722;7.078;2022-12-24T15:20:22;14.53;;;4.37;;
11100;SDS011;5604;50.722;7.078;2022-12-24T15:22:52;15.90;;;4.17;;
11100;SDS011;5604;50.722;7.078;2022-12-24T15:25:22;14.17;;;5.00;;
11100;SDS011;5604;50.722;7.078;2022-12-24T15:27:52;13.57;;;4.83;;
11100;SDS011;5604;50.722;7.078;2022-12-24T15:30:22;18.07;;;4.73;;
11100;SDS011;5604;50.722;7.078;2022-12-24T15:32:52;15.67;;;4.93;;
11100;SDS011;5604;50.722;7.078;2022-12-24T15:35:32;17.43;;;5.27;;
11100;SDS011;5604;50.722;7.078;2022-12-24T15:38:21;16.00;;;5.33;;
11100;SDS011;5604;50.722;7.078;2022-12-24T15:40:51;12.03;;;4.83;;
11100;SDS011;5604;50.722;7.078;2022-12-24T15:43:21;15.07;;;4.40;;